createdAt,value
2018-05-12T15:48:14.360Z,6.20
2018-05-12T15:50:43.606Z,6.30
2018-05-12T15:53:12.777Z,6.00
2018-05-12T15:55:42.505Z,7.27
2018-05-12T15:58:12.041Z,8.07
2018-05-12T16:00:42.890Z,5.80
2018-05-12T16:03:14.310Z,6.73
2018-05-12T16:05:43.609Z,5.07
2018-05-12T16:08:25.042Z,6.63
2018-05-12T16:10:55.789Z,7.13
2018-05-12T16:13:27.401Z,7.10
2018-05-12T16:15:57.508Z,7.20
2018-05-12T16:18:32.969Z,7.10
2018-05-12T16:21:02.413Z,6.60
2018-05-12T16:23:42.321Z,7.50
2018-05-12T16:29:36.356Z,8.20
2018-05-12T16:46:13.604Z,8.30
2018-05-12T16:48:42.908Z,11.43
2018-05-12T16:51:12.309Z,10.70
2018-05-12T16:53:41.697Z,10.53
2018-05-12T16:56:12.243Z,11.17
2018-05-12T16:58:42.261Z,9.60
2018-05-12T17:01:13.331Z,8.13
2018-05-12T17:03:42.857Z,8.00
2018-05-12T17:06:12.111Z,7.77
2018-05-12T17:08:41.411Z,7.70
2018-05-12T17:11:10.711Z,7.43
2018-05-12T17:13:41.979Z,7.93
2018-05-12T17:16:11.364Z,7.90
2018-05-12T17:18:40.664Z,6.97
2018-05-12T17:21:09.970Z,6.90
2018-05-12T17:23:40.087Z,6.60
2018-05-12T17:26:09.390Z,7.00
2018-05-12T17:28:39.514Z,7.30
2018-05-12T17:31:09.632Z,7.87
2018-05-12T17:33:38.874Z,6.40
2018-05-12T17:36:08.231Z,5.40
2018-05-12T17:38:37.532Z,6.60
2018-05-12T17:41:06.820Z,5.63
2018-05-12T17:43:36.135Z,5.83
2018-05-12T17:46:05.377Z,6.70
2018-05-12T17:48:34.635Z,6.10
2018-05-12T17:51:03.939Z,6.13
2018-05-12T17:53:34.049Z,6.50
2018-05-12T17:56:03.357Z,6.97
2018-05-12T17:58:32.654Z,5.20
2018-05-12T18:01:01.960Z,6.60
2018-05-12T18:03:31.262Z,6.10
2018-05-12T18:06:00.563Z,3.83
2018-05-12T18:08:30.688Z,3.50
2018-05-12T18:11:00.705Z,4.30
2018-05-12T18:13:30.822Z,5.13
2018-05-12T18:16:00.122Z,4.33
2018-05-12T18:18:29.423Z,4.63
2018-05-12T18:20:58.724Z,4.20
2018-05-12T18:23:28.026Z,4.50
2018-05-12T18:25:57.328Z,4.67
2018-05-12T18:28:27.342Z,5.47
2018-05-12T18:30:56.654Z,4.20
2018-05-12T18:33:26.771Z,4.77
2018-05-12T18:35:56.076Z,5.13
2018-05-12T18:38:26.192Z,5.33
2018-05-12T18:40:55.494Z,3.57
2018-05-12T18:43:25.612Z,4.20
2018-05-12T18:45:54.911Z,4.67
2018-05-12T18:48:24.212Z,3.47
2018-05-12T18:50:53.515Z,3.83
2018-05-12T18:53:22.814Z,3.90
2018-05-12T18:55:52.116Z,3.73
2018-05-12T18:58:21.418Z,3.97
2018-05-12T19:00:50.820Z,5.03
2018-05-12T19:03:20.112Z,3.97
2018-05-12T19:05:49.424Z,4.17
2018-05-12T19:08:18.756Z,4.20
2018-05-12T19:10:48.132Z,5.27
2018-05-12T19:13:18.328Z,5.37
2018-05-12T19:15:47.653Z,4.13
2018-05-12T19:18:16.955Z,5.37
2018-05-12T19:20:46.243Z,4.80
2018-05-12T19:23:15.558Z,3.93
2018-05-12T19:25:45.679Z,4.60
2018-05-12T19:28:14.965Z,4.77
2018-05-12T19:30:44.283Z,5.20
2018-05-12T19:33:14.396Z,3.80
2018-05-12T19:35:43.701Z,5.17
2018-05-12T19:38:12.945Z,5.50
2018-05-12T19:40:42.303Z,6.00
2018-05-12T19:43:11.603Z,4.33
2018-05-12T19:45:40.909Z,3.97
2018-05-12T19:48:10.209Z,5.47
2018-05-12T19:50:39.517Z,4.60
2018-05-12T19:53:09.629Z,3.70
2018-05-12T19:55:38.932Z,4.90
2018-05-12T19:58:08.226Z,5.53
2018-05-12T20:00:37.465Z,6.37
2018-05-12T20:03:06.834Z,6.17
2018-05-12T20:05:36.135Z,5.50
2018-05-12T20:08:05.436Z,5.40
2018-05-12T20:10:34.730Z,4.13
2018-05-12T20:13:04.041Z,5.17
2018-05-12T20:15:33.341Z,6.03
2018-05-12T20:18:02.642Z,4.80
2018-05-12T20:20:32.762Z,4.93
2018-05-12T20:23:02.064Z,4.53
2018-05-12T20:25:31.364Z,5.33
2018-05-12T20:28:00.667Z,6.10
2018-05-12T20:30:30.684Z,4.03
2018-05-12T20:33:00.808Z,4.83
2018-05-12T20:35:30.925Z,4.57
2018-05-12T20:38:00.226Z,3.43
2018-05-12T20:40:30.347Z,3.30
2018-05-12T20:42:59.605Z,6.13
2018-05-12T20:45:28.950Z,6.23
2018-05-12T20:47:58.237Z,6.13
2018-05-12T20:50:27.552Z,6.50
2018-05-12T20:52:56.853Z,7.83
2018-05-12T20:55:26.977Z,10.07
2018-05-12T20:57:57.093Z,5.87
2018-05-12T21:00:26.389Z,10.40
2018-05-12T21:02:55.680Z,9.63
2018-05-12T21:05:24.893Z,10.10
2018-05-12T21:07:54.197Z,10.10
2018-05-12T21:10:23.506Z,9.17
2018-05-12T21:12:54.041Z,9.40
2018-05-12T21:15:24.149Z,12.67
2018-05-12T21:17:54.269Z,11.93
2018-05-12T21:20:23.571Z,10.90
2018-05-12T21:22:53.679Z,8.73
2018-05-12T21:25:22.993Z,10.60
2018-05-12T21:27:53.109Z,7.80
2018-05-12T21:30:22.413Z,12.57
2018-05-12T21:32:52.533Z,11.07
2018-05-12T21:35:21.838Z,14.33
2018-05-12T21:37:52.011Z,12.50
2018-05-12T21:40:21.362Z,9.83
2018-05-12T21:42:50.659Z,10.30
2018-05-12T21:45:19.960Z,12.90
2018-05-12T21:47:49.262Z,10.07
2018-05-12T21:50:19.382Z,10.17
2018-05-12T21:52:48.683Z,10.23
2018-05-12T21:55:18.803Z,9.87
2018-05-12T21:57:48.924Z,9.73
2018-05-12T22:00:18.225Z,10.07
2018-05-12T22:02:47.531Z,10.77
2018-05-12T22:05:17.647Z,13.97
2018-05-12T22:07:47.067Z,9.57
2018-05-12T22:10:16.460Z,8.93
2018-05-12T22:12:46.576Z,10.07
2018-05-12T22:15:15.878Z,11.77
2018-05-12T22:17:45.177Z,10.20
2018-05-12T22:20:14.480Z,11.07
2018-05-12T22:22:43.728Z,10.13
2018-05-12T22:25:13.081Z,11.47
2018-05-12T22:27:43.203Z,11.77
2018-05-12T22:30:12.505Z,10.87
2018-05-12T22:32:41.805Z,10.97
2018-05-12T22:35:11.106Z,10.23
2018-05-12T22:37:40.411Z,13.57
2018-05-12T22:40:10.528Z,12.20
2018-05-12T22:42:40.648Z,11.37
2018-05-12T22:45:09.950Z,12.80
2018-05-12T22:47:39.250Z,11.80
2018-05-12T22:50:08.551Z,11.20
2018-05-12T22:52:37.854Z,9.33
2018-05-12T22:55:07.154Z,9.73
2018-05-12T22:57:36.457Z,12.90
2018-05-12T23:00:05.762Z,9.50
2018-05-12T23:02:35.880Z,10.17
2018-05-12T23:05:05.989Z,13.97
2018-05-12T23:07:35.246Z,8.90
2018-05-12T23:10:04.601Z,8.53
2018-05-12T23:12:33.902Z,13.03
2018-05-12T23:15:03.204Z,11.07
2018-05-12T23:17:32.504Z,13.20
2018-05-12T23:20:01.807Z,13.37
2018-05-12T23:22:31.925Z,12.17
2018-05-12T23:25:01.301Z,12.90
2018-05-12T23:27:30.629Z,11.10
2018-05-12T23:29:59.920Z,11.83
2018-05-12T23:32:29.233Z,11.97
2018-05-12T23:34:58.533Z,11.03
2018-05-12T23:37:27.835Z,12.33
2018-05-12T23:39:57.136Z,12.80
2018-05-12T23:42:26.487Z,10.93
2018-05-12T23:44:55.785Z,12.77
2018-05-12T23:47:25.040Z,9.13
2018-05-12T23:49:54.341Z,11.23
2018-05-12T23:52:23.644Z,12.37
2018-05-12T23:54:52.943Z,14.77
2018-05-12T23:57:22.309Z,13.07
2018-05-12T23:59:51.507Z,8.67
